Back to Top

Language: 

My Weather Underground Personal Weather Station Historical Data with Graphs...

Delerius Weather Station Historical Data
Daily Summary for January 14, 2018 Units:  Both    English   Metric
« Previous Day
Next Day »
Daily Weekly Monthly Yearly Custom
  High: Low: Average:
Temperature: 39.4 °F /  4.1 °C 36.7 °F /  2.6 °C 38.3 °F /  3.5 °C
Dew Point: 36.3 °F /  2.4 °C 32.9 °F /  0.5 °C 34.5 °F /  1.4 °C
Humidity: 91 % 83 % 86 %
Wind Speed: 14.0 mph /  22.5 km/h - 7.4 mph /  11.9 km/h
Wind Gust: 25.0 mph /  40.2 km/h - -
Wind:- - South
Pressure: 30.13 in /  1020.2 hPa 29.68 in /  1005 hPa -
Precipitation: 0.01 in /  0.25 mm    
Historical Graphs
 
 
Tabular Data for January 14, 2018
Time Temperature Dew Point Pressure Wind Wind Speed Wind Gust Humidity Rainfall Rate (Hourly) solar Conditions
00:05 39.4 °F /  4.1 °C 35.8 °F /  2.1 °C 30.12 in /  1019.9 hPa SE 5.0 mph /  8 km/h 8.0 mph /  12.9 km/h 87 % 0.00 in /  0 mm 0 W/m2
00:12 39.4 °F /  4.1 °C 36.1 °F /  2.3 °C 30.12 in /  1019.9 hPa SE 2.0 mph /  3.2 km/h 6.0 mph /  9.7 km/h 88 % 0.00 in /  0 mm 0 W/m2
00:22 39.4 °F /  4.1 °C 36.1 °F /  2.3 °C 30.12 in /  1019.9 hPa SE 5.0 mph /  8 km/h 7.0 mph /  11.3 km/h 88 % 0.00 in /  0 mm 0 W/m2
00:30 39.4 °F /  4.1 °C 36.1 °F /  2.3 °C 30.12 in /  1019.9 hPa SSE 3.0 mph /  4.8 km/h 7.0 mph /  11.3 km/h 88 % 0.00 in /  0 mm 0 W/m2
00:42 39.4 °F /  4.1 °C 36.1 °F /  2.3 °C 30.12 in /  1019.9 hPa SSE 5.0 mph /  8 km/h 7.0 mph /  11.3 km/h 88 % 0.00 in /  0 mm 0 W/m2
00:51 39.4 °F /  4.1 °C 36.1 °F /  2.3 °C 30.13 in /  1020.2 hPa SE 6.0 mph /  9.7 km/h 9.0 mph /  14.5 km/h 88 % 0.00 in /  0 mm 0 W/m2
01:06 39.4 °F /  4.1 °C 35.8 °F /  2.1 °C 30.12 in /  1019.9 hPa SSE 4.0 mph /  6.4 km/h 6.0 mph /  9.7 km/h 87 % 0.00 in /  0 mm 0 W/m2
01:16 39.4 °F /  4.1 °C 35.8 °F /  2.1 °C 30.12 in /  1019.9 hPa SE 5.0 mph /  8 km/h 8.0 mph /  12.9 km/h 87 % 0.00 in /  0 mm 0 W/m2
01:29 39.4 °F /  4.1 °C 35.8 °F /  2.1 °C 30.12 in /  1019.9 hPa Calm   5.0 mph /  8 km/h 87 % 0.00 in /  0 mm 0 W/m2
01:36 39.4 °F /  4.1 °C 35.8 °F /  2.1 °C 30.11 in /  1019.5 hPa ESE 1.0 mph /  1.6 km/h 4.0 mph /  6.4 km/h 87 % 0.00 in /  0 mm 0 W/m2
01:43 39.4 °F /  4.1 °C 35.8 °F /  2.1 °C 30.12 in /  1019.9 hPa SSE 2.0 mph /  3.2 km/h 5.0 mph /  8 km/h 87 % 0.00 in /  0 mm 0 W/m2
01:52 39.4 °F /  4.1 °C 36.1 °F /  2.3 °C 30.11 in /  1019.5 hPa SE 5.0 mph /  8 km/h 8.0 mph /  12.9 km/h 88 % 0.00 in /  0 mm 0 W/m2
02:03 39.4 °F /  4.1 °C 36.1 °F /  2.3 °C 30.11 in /  1019.5 hPa SE 4.0 mph /  6.4 km/h 8.0 mph /  12.9 km/h 88 % 0.00 in /  0 mm 0 W/m2
02:11 39.4 °F /  4.1 °C 36.1 °F /  2.3 °C 30.11 in /  1019.5 hPa SE 5.0 mph /  8 km/h 7.0 mph /  11.3 km/h 88 % 0.00 in /  0 mm 0 W/m2
02:18 39.4 °F /  4.1 °C 36.1 °F /  2.3 °C 30.11 in /  1019.5 hPa SE 3.0 mph /  4.8 km/h 6.0 mph /  9.7 km/h 88 % 0.00 in /  0 mm 0 W/m2
02:55 39.4 °F /  4.1 °C 36.1 °F /  2.3 °C 30.10 in /  1019.2 hPa SE 6.0 mph /  9.7 km/h 9.0 mph /  14.5 km/h 88 % 0.00 in /  0 mm 0 W/m2
03:01 39.4 °F /  4.1 °C 36.1 °F /  2.3 °C 30.11 in /  1019.5 hPa SE 3.0 mph /  4.8 km/h 6.0 mph /  9.7 km/h 88 % 0.00 in /  0 mm 0 W/m2
03:17 39.4 °F /  4.1 °C 36.1 °F /  2.3 °C 30.10 in /  1019.2 hPa SE 5.0 mph /  8 km/h 8.0 mph /  12.9 km/h 88 % 0.00 in /  0 mm 0 W/m2
03:24 39.4 °F /  4.1 °C 36.1 °F /  2.3 °C 30.11 in /  1019.5 hPa SE 5.0 mph /  8 km/h 8.0 mph /  12.9 km/h 88 % 0.00 in /  0 mm 0 W/m2
03:45 39.4 °F /  4.1 °C 35.8 °F /  2.1 °C 30.10 in /  1019.2 hPa SSE 8.0 mph /  12.9 km/h 10.0 mph /  16.1 km/h 87 % 0.00 in /  0 mm 0 W/m2
03:50 39.4 °F /  4.1 °C 35.8 °F /  2.1 °C 30.10 in /  1019.2 hPa SSE 7.0 mph /  11.3 km/h 9.0 mph /  14.5 km/h 87 % 0.00 in /  0 mm 0 W/m2
03:55 39.4 °F /  4.1 °C 35.8 °F /  2.1 °C 30.10 in /  1019.2 hPa SE 7.0 mph /  11.3 km/h 11.0 mph /  17.7 km/h 87 % 0.00 in /  0 mm 0 W/m2
04:08 39.4 °F /  4.1 °C 35.2 °F /  1.8 °C 30.10 in /  1019.2 hPa SSE 6.0 mph /  9.7 km/h 13.0 mph /  20.9 km/h 85 % 0.00 in /  0 mm 0 W/m2
04:26 39.4 °F /  4.1 °C 35.5 °F /  1.9 °C 30.10 in /  1019.2 hPa South 3.0 mph /  4.8 km/h 6.0 mph /  9.7 km/h 86 % 0.00 in /  0 mm 0 W/m2
04:35 39.4 °F /  4.1 °C 35.5 °F /  1.9 °C 30.11 in /  1019.5 hPa South 5.0 mph /  8 km/h 8.0 mph /  12.9 km/h 86 % 0.00 in /  0 mm 0 W/m2
04:40 39.4 °F /  4.1 °C 35.2 °F /  1.8 °C 30.10 in /  1019.2 hPa SSE 4.0 mph /  6.4 km/h 7.0 mph /  11.3 km/h 85 % 0.00 in /  0 mm 0 W/m2
04:45 39.4 °F /  4.1 °C 35.2 °F /  1.8 °C 30.10 in /  1019.2 hPa SSE 5.0 mph /  8 km/h 8.0 mph /  12.9 km/h 85 % 0.00 in /  0 mm 0 W/m2
05:13 39.4 °F /  4.1 °C 35.2 °F /  1.8 °C 30.10 in /  1019.2 hPa SSE 5.0 mph /  8 km/h 8.0 mph /  12.9 km/h 85 % 0.00 in /  0 mm 0 W/m2
05:20 39.4 °F /  4.1 °C 35.2 °F /  1.8 °C 30.10 in /  1019.2 hPa SSE 6.0 mph /  9.7 km/h 9.0 mph /  14.5 km/h 85 % 0.00 in /  0 mm 0 W/m2
05:25 39.2 °F /  4 °C 35.4 °F /  1.9 °C 30.09 in /  1018.8 hPa South 6.0 mph /  9.7 km/h 10.0 mph /  16.1 km/h 86 % 0.00 in /  0 mm 0 W/m2
05:32 39.2 °F /  4 °C 35.4 °F /  1.9 °C 30.10 in /  1019.2 hPa South 5.0 mph /  8 km/h 10.0 mph /  16.1 km/h 86 % 0.00 in /  0 mm 0 W/m2
05:55 39.0 °F /  3.9 °C 35.2 °F /  1.8 °C 30.10 in /  1019.2 hPa SSE 7.0 mph /  11.3 km/h 15.0 mph /  24.1 km/h 86 % 0.00 in /  0 mm 0 W/m2
06:18 39.0 °F /  3.9 °C 35.5 °F /  1.9 °C 30.09 in /  1018.8 hPa SE 4.0 mph /  6.4 km/h 6.0 mph /  9.7 km/h 87 % 0.00 in /  0 mm 0 W/m2
06:47 38.7 °F /  3.7 °C 34.8 °F /  1.6 °C 30.09 in /  1018.8 hPa SE 7.0 mph /  11.3 km/h 10.0 mph /  16.1 km/h 86 % 0.00 in /  0 mm 0 W/m2
07:21 38.5 °F /  3.6 °C 34.9 °F /  1.6 °C 30.09 in /  1018.8 hPa SE 5.0 mph /  8 km/h 8.0 mph /  12.9 km/h 87 % 0.00 in /  0 mm 0 W/m2
07:32 38.5 °F /  3.6 °C 35.2 °F /  1.8 °C 30.09 in /  1018.8 hPa SE 6.0 mph /  9.7 km/h 9.0 mph /  14.5 km/h 88 % 0.00 in /  0 mm 0 W/m2
07:41 38.3 °F /  3.5 °C 35.1 °F /  1.7 °C 30.09 in /  1018.8 hPa SSE 7.0 mph /  11.3 km/h 12.0 mph /  19.3 km/h 88 % 0.00 in /  0 mm 0 W/m2
07:46 38.1 °F /  3.4 °C 34.9 °F /  1.6 °C 30.09 in /  1018.8 hPa SSE 7.0 mph /  11.3 km/h 11.0 mph /  17.7 km/h 88 % 0.00 in /  0 mm 0 W/m2
07:51 38.1 °F /  3.4 °C 34.9 °F /  1.6 °C 30.10 in /  1019.2 hPa SSE 7.0 mph /  11.3 km/h 10.0 mph /  16.1 km/h 88 % 0.00 in /  0 mm 0 W/m2
08:07 38.1 °F /  3.4 °C 34.6 °F /  1.4 °C 30.10 in /  1019.2 hPa SSE 8.0 mph /  12.9 km/h 13.0 mph /  20.9 km/h 87 % 0.00 in /  0 mm 0 W/m2
08:16 38.1 °F /  3.4 °C 34.6 °F /  1.4 °C 30.11 in /  1019.5 hPa SSW 5.0 mph /  8 km/h 9.0 mph /  14.5 km/h 87 % 0.00 in /  0 mm 0 W/m2
08:28 38.1 °F /  3.4 °C 34.3 °F /  1.3 °C 30.11 in /  1019.5 hPa South 5.0 mph /  8 km/h 9.0 mph /  14.5 km/h 86 % 0.00 in /  0 mm 0 W/m2
08:53 37.9 °F /  3.3 °C 34.1 °F /  1.2 °C 30.12 in /  1019.9 hPa SSW 5.0 mph /  8 km/h 8.0 mph /  12.9 km/h 86 % 0.00 in /  0 mm 5 W/m2
09:04 37.9 °F /  3.3 °C 34.1 °F /  1.2 °C 30.12 in /  1019.9 hPa South 5.0 mph /  8 km/h 10.0 mph /  16.1 km/h 86 % 0.00 in /  0 mm 7 W/m2
09:11 37.9 °F /  3.3 °C 34.1 °F /  1.2 °C 30.12 in /  1019.9 hPa SSW 4.0 mph /  6.4 km/h 6.0 mph /  9.7 km/h 86 % 0.00 in /  0 mm 9 W/m2
09:20 38.1 °F /  3.4 °C 34.3 °F /  1.3 °C 30.12 in /  1019.9 hPa South 5.0 mph /  8 km/h 9.0 mph /  14.5 km/h 86 % 0.00 in /  0 mm 16 W/m2
09:27 38.1 °F /  3.4 °C 34.3 °F /  1.3 °C 30.12 in /  1019.9 hPa SSE 2.0 mph /  3.2 km/h 6.0 mph /  9.7 km/h 86 % 0.00 in /  0 mm 18 W/m2
09:33 38.1 °F /  3.4 °C 34.3 °F /  1.3 °C 30.12 in /  1019.9 hPa SSE 3.0 mph /  4.8 km/h 7.0 mph /  11.3 km/h 86 % 0.00 in /  0 mm 18 W/m2
09:48 38.1 °F /  3.4 °C 34.3 °F /  1.3 °C 30.11 in /  1019.5 hPa SSE 6.0 mph /  9.7 km/h 9.0 mph /  14.5 km/h 86 % 0.00 in /  0 mm 19 W/m2
10:01 38.3 °F /  3.5 °C 34.2 °F /  1.2 °C 30.11 in /  1019.5 hPa SSE 5.0 mph /  8 km/h 8.0 mph /  12.9 km/h 85 % 0.00 in /  0 mm 28 W/m2
10:09 38.3 °F /  3.5 °C 34.2 °F /  1.2 °C 30.10 in /  1019.2 hPa SSE 6.0 mph /  9.7 km/h 8.0 mph /  12.9 km/h 85 % 0.00 in /  0 mm 32 W/m2
10:24 38.5 °F /  3.6 °C 34.1 °F /  1.2 °C 30.09 in /  1018.8 hPa SE 10.0 mph /  16.1 km/h 14.0 mph /  22.5 km/h 84 % 0.00 in /  0 mm 39 W/m2
10:37 38.5 °F /  3.6 °C 33.8 °F /  1 °C 30.09 in /  1018.8 hPa SE 6.0 mph /  9.7 km/h 13.0 mph /  20.9 km/h 83 % 0.00 in /  0 mm 47 W/m2
10:46 38.5 °F /  3.6 °C 33.8 °F /  1 °C 30.09 in /  1018.8 hPa SSE 8.0 mph /  12.9 km/h 13.0 mph /  20.9 km/h 83 % 0.00 in /  0 mm 47 W/m2
10:59 38.5 °F /  3.6 °C 33.8 °F /  1 °C 30.08 in /  1018.5 hPa South 8.0 mph /  12.9 km/h 13.0 mph /  20.9 km/h 83 % 0.00 in /  0 mm 44 W/m2
11:05 38.5 °F /  3.6 °C 33.8 °F /  1 °C 30.07 in /  1018.2 hPa SSE 10.0 mph /  16.1 km/h 15.0 mph /  24.1 km/h 83 % 0.00 in /  0 mm 53 W/m2
11:12 38.5 °F /  3.6 °C 33.8 °F /  1 °C 30.08 in /  1018.5 hPa SSE 8.0 mph /  12.9 km/h 11.0 mph /  17.7 km/h 83 % 0.00 in /  0 mm 49 W/m2
11:26 38.7 °F /  3.7 °C 33.9 °F /  1.1 °C 30.08 in /  1018.5 hPa SSE 7.0 mph /  11.3 km/h 11.0 mph /  17.7 km/h 83 % 0.00 in /  0 mm 53 W/m2
11:34 38.7 °F /  3.7 °C 33.9 °F /  1.1 °C 30.07 in /  1018.2 hPa SE 8.0 mph /  12.9 km/h 13.0 mph /  20.9 km/h 83 % 0.00 in /  0 mm 53 W/m2
11:49 38.7 °F /  3.7 °C 33.9 °F /  1.1 °C 30.07 in /  1018.2 hPa SSW 8.0 mph /  12.9 km/h 14.0 mph /  22.5 km/h 83 % 0.00 in /  0 mm 44 W/m2
12:01 38.7 °F /  3.7 °C 33.9 °F /  1.1 °C 30.07 in /  1018.2 hPa South 8.0 mph /  12.9 km/h 13.0 mph /  20.9 km/h 83 % 0.00 in /  0 mm 42 W/m2
12:11 38.7 °F /  3.7 °C 33.9 °F /  1.1 °C 30.06 in /  1017.8 hPa South 8.0 mph /  12.9 km/h 13.0 mph /  20.9 km/h 83 % 0.00 in /  0 mm 46 W/m2
12:28 38.8 °F /  3.8 °C 34.1 °F /  1.2 °C 30.06 in /  1017.8 hPa South 6.0 mph /  9.7 km/h 10.0 mph /  16.1 km/h 83 % 0.00 in /  0 mm 60 W/m2
12:36 38.8 °F /  3.8 °C 34.1 °F /  1.2 °C 30.06 in /  1017.8 hPa SSW 9.0 mph /  14.5 km/h 13.0 mph /  20.9 km/h 83 % 0.00 in /  0 mm 56 W/m2
12:54 38.8 °F /  3.8 °C 34.1 °F /  1.2 °C 30.04 in /  1017.2 hPa South 6.0 mph /  9.7 km/h 11.0 mph /  17.7 km/h 83 % 0.00 in /  0 mm 56 W/m2
13:10 38.8 °F /  3.8 °C 34.1 °F /  1.2 °C 30.03 in /  1016.8 hPa SSW 9.0 mph /  14.5 km/h 15.0 mph /  24.1 km/h 83 % 0.00 in /  0 mm 56 W/m2
13:22 38.7 °F /  3.7 °C 33.9 °F /  1.1 °C 30.02 in /  1016.5 hPa SSE 10.0 mph /  16.1 km/h 16.0 mph /  25.7 km/h 83 % 0.00 in /  0 mm 53 W/m2
13:29 38.8 °F /  3.8 °C 34.4 °F /  1.3 °C 30.02 in /  1016.5 hPa SSE 6.0 mph /  9.7 km/h 13.0 mph /  20.9 km/h 84 % 0.00 in /  0 mm 56 W/m2
13:47 38.8 °F /  3.8 °C 34.4 °F /  1.3 °C 30.02 in /  1016.5 hPa SSW 5.0 mph /  8 km/h 9.0 mph /  14.5 km/h 84 % 0.00 in /  0 mm 65 W/m2
13:53 38.8 °F /  3.8 °C 34.4 °F /  1.3 °C 30.02 in /  1016.5 hPa SSW 6.0 mph /  9.7 km/h 9.0 mph /  14.5 km/h 84 % 0.00 in /  0 mm 56 W/m2
14:01 38.8 °F /  3.8 °C 34.4 °F /  1.3 °C 30.01 in /  1016.1 hPa SSW 8.0 mph /  12.9 km/h 14.0 mph /  22.5 km/h 84 % 0.00 in /  0 mm 51 W/m2
14:09 38.7 °F /  3.7 °C 33.9 °F /  1.1 °C 30.00 in /  1015.8 hPa SSW 13.0 mph /  20.9 km/h 21.0 mph /  33.8 km/h 83 % 0.00 in /  0 mm 46 W/m2
14:14 38.5 °F /  3.6 °C 33.8 °F /  1 °C 30.00 in /  1015.8 hPa South 11.0 mph /  17.7 km/h 20.0 mph /  32.2 km/h 83 % 0.00 in /  0 mm 39 W/m2
14:24 38.5 °F /  3.6 °C 34.1 °F /  1.2 °C 29.99 in /  1015.5 hPa South 7.0 mph /  11.3 km/h 12.0 mph /  19.3 km/h 84 % 0.00 in /  0 mm 35 W/m2
14:33 38.3 °F /  3.5 °C 33.9 °F /  1.1 °C 29.98 in /  1015.1 hPa South 8.0 mph /  12.9 km/h 16.0 mph /  25.7 km/h 84 % 0.00 in /  0 mm 40 W/m2
14:40 38.3 °F /  3.5 °C 33.9 °F /  1.1 °C 29.99 in /  1015.5 hPa SSW 11.0 mph /  17.7 km/h 22.0 mph /  35.4 km/h 84 % 0.00 in /  0 mm 33 W/m2
14:45 38.1 °F /  3.4 °C 33.7 °F /  0.9 °C 29.99 in /  1015.5 hPa SW 10.0 mph /  16.1 km/h 19.0 mph /  30.6 km/h 84 % 0.00 in /  0 mm 28 W/m2
14:55 38.1 °F /  3.4 °C 33.7 °F /  0.9 °C 29.99 in /  1015.5 hPa SSW 10.0 mph /  16.1 km/h 19.0 mph /  30.6 km/h 84 % 0.00 in /  0 mm 23 W/m2
15:23 37.8 °F /  3.2 °C 33.4 °F /  0.8 °C 29.97 in /  1014.8 hPa South 10.0 mph /  16.1 km/h 20.0 mph /  32.2 km/h 84 % 0.00 in /  0 mm 16 W/m2
15:39 37.6 °F /  3.1 °C 33.2 °F /  0.7 °C 29.97 in /  1014.8 hPa SSW 14.0 mph /  22.5 km/h 21.0 mph /  33.8 km/h 84 % 0.00 in /  0 mm 12 W/m2
15:49 37.6 °F /  3.1 °C 33.2 °F /  0.7 °C 29.97 in /  1014.8 hPa SSW 13.0 mph /  20.9 km/h 25.0 mph /  40.2 km/h 84 % 0.00 in /  0 mm 7 W/m2
16:08 37.6 °F /  3.1 °C 33.5 °F /  0.8 °C 29.97 in /  1014.8 hPa SW 9.0 mph /  14.5 km/h 15.0 mph /  24.1 km/h 85 % 0.00 in /  0 mm 0 W/m2
16:16 37.6 °F /  3.1 °C 33.5 °F /  0.8 °C 29.97 in /  1014.8 hPa SW 11.0 mph /  17.7 km/h 19.0 mph /  30.6 km/h 85 % 0.00 in /  0 mm 0 W/m2
16:33 37.4 °F /  3 °C 33.3 °F /  0.7 °C 29.96 in /  1014.4 hPa SSW 10.0 mph /  16.1 km/h 16.0 mph /  25.7 km/h 85 % 0.00 in /  0 mm 0 W/m2
16:51 37.2 °F /  2.9 °C 33.1 °F /  0.6 °C 29.96 in /  1014.4 hPa South 9.0 mph /  14.5 km/h 13.0 mph /  20.9 km/h 85 % 0.00 in /  0 mm 0 W/m2
16:58 37.2 °F /  2.9 °C 33.1 °F /  0.6 °C 29.96 in /  1014.4 hPa South 8.0 mph /  12.9 km/h 13.0 mph /  20.9 km/h 85 % 0.00 in /  0 mm 0 W/m2
17:10 37.2 °F /  2.9 °C 33.1 °F /  0.6 °C 29.95 in /  1014.1 hPa SSE 6.0 mph /  9.7 km/h 9.0 mph /  14.5 km/h 85 % 0.00 in /  0 mm 0 W/m2
17:17 37.2 °F /  2.9 °C 33.1 °F /  0.6 °C 29.95 in /  1014.1 hPa SW 1.0 mph /  1.6 km/h 4.0 mph /  6.4 km/h 85 % 0.00 in /  0 mm 0 W/m2
17:23 37.2 °F /  2.9 °C 33.1 °F /  0.6 °C 29.95 in /  1014.1 hPa SSW 9.0 mph /  14.5 km/h 14.0 mph /  22.5 km/h 85 % 0.00 in /  0 mm 0 W/m2
17:32 37.0 °F /  2.8 °C 32.9 °F /  0.5 °C 29.94 in /  1013.8 hPa SW 9.0 mph /  14.5 km/h 15.0 mph /  24.1 km/h 85 % 0.00 in /  0 mm 0 W/m2
17:42 37.0 °F /  2.8 °C 32.9 °F /  0.5 °C 29.94 in /  1013.8 hPa SSW 10.0 mph /  16.1 km/h 19.0 mph /  30.6 km/h 85 % 0.00 in /  0 mm 0 W/m2
17:47 37.0 °F /  2.8 °C 32.9 °F /  0.5 °C 29.94 in /  1013.8 hPa SW 10.0 mph /  16.1 km/h 18.0 mph /  29 km/h 85 % 0.00 in /  0 mm 0 W/m2
17:52 37.0 °F /  2.8 °C 32.9 °F /  0.5 °C 29.94 in /  1013.8 hPa SW 12.0 mph /  19.3 km/h 20.0 mph /  32.2 km/h 85 % 0.00 in /  0 mm 0 W/m2
18:09 37.0 °F /  2.8 °C 32.9 °F /  0.5 °C 29.93 in /  1013.4 hPa SSW 13.0 mph /  20.9 km/h 19.0 mph /  30.6 km/h 85 % 0.00 in /  0 mm 0 W/m2
18:26 37.0 °F /  2.8 °C 33.2 °F /  0.7 °C 29.93 in /  1013.4 hPa SSW 11.0 mph /  17.7 km/h 14.0 mph /  22.5 km/h 86 % 0.00 in /  0 mm 0 W/m2
18:33 37.0 °F /  2.8 °C 33.2 °F /  0.7 °C 29.92 in /  1013.1 hPa South 9.0 mph /  14.5 km/h 11.0 mph /  17.7 km/h 86 % 0.00 in /  0 mm 0 W/m2
18:41 36.9 °F /  2.7 °C 33.1 °F /  0.6 °C 29.91 in /  1012.8 hPa South 8.0 mph /  12.9 km/h 14.0 mph /  22.5 km/h 86 % 0.00 in /  0 mm 0 W/m2
18:47 36.9 °F /  2.7 °C 33.1 °F /  0.6 °C 29.91 in /  1012.8 hPa South 8.0 mph /  12.9 km/h 14.0 mph /  22.5 km/h 86 % 0.00 in /  0 mm 0 W/m2
18:58 36.9 °F /  2.7 °C 33.1 °F /  0.6 °C 29.91 in /  1012.8 hPa South 9.0 mph /  14.5 km/h 16.0 mph /  25.7 km/h 86 % 0.00 in /  0 mm 0 W/m2
19:16 36.9 °F /  2.7 °C 33.1 °F /  0.6 °C 29.89 in /  1012.1 hPa South 11.0 mph /  17.7 km/h 19.0 mph /  30.6 km/h 86 % 0.00 in /  0 mm 0 W/m2
19:30 36.7 °F /  2.6 °C 33.2 °F /  0.7 °C 29.88 in /  1011.7 hPa South 11.0 mph /  17.7 km/h 21.0 mph /  33.8 km/h 87 % 0.00 in /  0 mm 0 W/m2
19:38 36.9 °F /  2.7 °C 33.4 °F /  0.8 °C 29.88 in /  1011.7 hPa South 10.0 mph /  16.1 km/h 19.0 mph /  30.6 km/h 87 % 0.00 in /  0 mm 0 W/m2
19:44 36.9 °F /  2.7 °C 33.4 °F /  0.8 °C 29.88 in /  1011.7 hPa South 10.0 mph /  16.1 km/h 16.0 mph /  25.7 km/h 87 % 0.00 in /  0 mm 0 W/m2
19:49 36.9 °F /  2.7 °C 33.4 °F /  0.8 °C 29.87 in /  1011.4 hPa South 7.0 mph /  11.3 km/h 15.0 mph /  24.1 km/h 87 % 0.00 in /  0 mm 0 W/m2
19:55 36.9 °F /  2.7 °C 33.4 °F /  0.8 °C 29.86 in /  1011.1 hPa South 10.0 mph /  16.1 km/h 16.0 mph /  25.7 km/h 87 % 0.00 in /  0 mm 0 W/m2
20:00 36.9 °F /  2.7 °C 33.4 °F /  0.8 °C 29.86 in /  1011.1 hPa South 11.0 mph /  17.7 km/h 16.0 mph /  25.7 km/h 87 % 0.00 in /  0 mm 0 W/m2
20:11 37.0 °F /  2.8 °C 33.5 °F /  0.8 °C 29.85 in /  1010.7 hPa SSW 9.0 mph /  14.5 km/h 16.0 mph /  25.7 km/h 87 % 0.00 in /  0 mm 0 W/m2
20:19 37.0 °F /  2.8 °C 33.5 °F /  0.8 °C 29.85 in /  1010.7 hPa SSW 8.0 mph /  12.9 km/h 15.0 mph /  24.1 km/h 87 % 0.00 in /  0 mm 0 W/m2
20:27 37.0 °F /  2.8 °C 33.5 °F /  0.8 °C 29.84 in /  1010.4 hPa SSW 7.0 mph /  11.3 km/h 15.0 mph /  24.1 km/h 87 % 0.00 in /  0 mm 0 W/m2
20:47 37.2 °F /  2.9 °C 33.7 °F /  0.9 °C 29.83 in /  1010 hPa SSW 9.0 mph /  14.5 km/h 15.0 mph /  24.1 km/h 87 % 0.00 in /  0 mm 0 W/m2
20:55 37.4 °F /  3 °C 33.9 °F /  1.1 °C 29.82 in /  1009.7 hPa SSW 10.0 mph /  16.1 km/h 16.0 mph /  25.7 km/h 87 % 0.00 in /  0 mm 0 W/m2
21:09 37.6 °F /  3.1 °C 34.1 °F /  1.2 °C 29.81 in /  1009.4 hPa SW 8.0 mph /  12.9 km/h 16.0 mph /  25.7 km/h 87 % 0.00 in /  0 mm 0 W/m2
21:14 37.6 °F /  3.1 °C 34.1 °F /  1.2 °C 29.80 in /  1009 hPa SSW 11.0 mph /  17.7 km/h 19.0 mph /  30.6 km/h 87 % 0.00 in /  0 mm 0 W/m2
21:22 37.6 °F /  3.1 °C 34.1 °F /  1.2 °C 29.80 in /  1009 hPa SSW 11.0 mph /  17.7 km/h 16.0 mph /  25.7 km/h 87 % 0.00 in /  0 mm 0 W/m2
21:32 37.8 °F /  3.2 °C 34.2 °F /  1.2 °C 29.79 in /  1008.7 hPa South 11.0 mph /  17.7 km/h 23.0 mph /  37 km/h 87 % 0.00 in /  0 mm 0 W/m2
21:41 37.9 °F /  3.3 °C 34.4 °F /  1.3 °C 29.79 in /  1008.7 hPa SSW 10.0 mph /  16.1 km/h 16.0 mph /  25.7 km/h 87 % 0.00 in /  0 mm 0 W/m2
22:06 38.3 °F /  3.5 °C 34.8 °F /  1.6 °C 29.77 in /  1008 hPa SSW 9.0 mph /  14.5 km/h 18.0 mph /  29 km/h 87 % 0.00 in /  0 mm 0 W/m2
22:18 38.5 °F /  3.6 °C 34.9 °F /  1.6 °C 29.76 in /  1007.7 hPa SSW 9.0 mph /  14.5 km/h 14.0 mph /  22.5 km/h 87 % 0.00 in /  0 mm 0 W/m2
22:23 38.5 °F /  3.6 °C 34.9 °F /  1.6 °C 29.76 in /  1007.7 hPa SSW 9.0 mph /  14.5 km/h 12.0 mph /  19.3 km/h 87 % 0.00 in /  0 mm 0 W/m2
22:30 38.7 °F /  3.7 °C 35.4 °F /  1.9 °C 29.75 in /  1007.3 hPa SSW 10.0 mph /  16.1 km/h 19.0 mph /  30.6 km/h 88 % 0.00 in /  0 mm 0 W/m2
22:38 38.7 °F /  3.7 °C 35.4 °F /  1.9 °C 29.75 in /  1007.3 hPa SSW 8.0 mph /  12.9 km/h 15.0 mph /  24.1 km/h 88 % 0.00 in /  0 mm 0 W/m2
22:43 38.7 °F /  3.7 °C 35.4 °F /  1.9 °C 29.74 in /  1007 hPa SSW 8.0 mph /  12.9 km/h 16.0 mph /  25.7 km/h 88 % 0.00 in /  0 mm 0 W/m2
22:53 38.8 °F /  3.8 °C 35.6 °F /  2 °C 29.74 in /  1007 hPa South 9.0 mph /  14.5 km/h 19.0 mph /  30.6 km/h 88 % 0.00 in /  0 mm 0 W/m2
23:02 38.8 °F /  3.8 °C 35.6 °F /  2 °C 29.73 in /  1006.7 hPa SSW 8.0 mph /  12.9 km/h 13.0 mph /  20.9 km/h 88 % 0.00 in /  0 mm 0 W/m2
23:10 38.8 °F /  3.8 °C 35.6 °F /  2 °C 29.72 in /  1006.3 hPa South 9.0 mph /  14.5 km/h 15.0 mph /  24.1 km/h 88 % 0.00 in /  0 mm 0 W/m2
23:16 38.7 °F /  3.7 °C 35.7 °F /  2.1 °C 29.72 in /  1006.3 hPa SSE 7.0 mph /  11.3 km/h 12.0 mph /  19.3 km/h 89 % 0.00 in /  0 mm 0 W/m2
23:23 38.7 °F /  3.7 °C 35.7 °F /  2.1 °C 29.71 in /  1006 hPa SSE 8.0 mph /  12.9 km/h 14.0 mph /  22.5 km/h 89 % 0.00 in /  0 mm 0 W/m2
23:28 38.7 °F /  3.7 °C 36.0 °F /  2.2 °C 29.70 in /  1005.6 hPa SSE 9.0 mph /  14.5 km/h 14.0 mph /  22.5 km/h 90 % 0.00 in /  0 mm 0 W/m2
23:35 38.7 °F /  3.7 °C 36.0 °F /  2.2 °C 29.70 in /  1005.6 hPa SSE 10.0 mph /  16.1 km/h 14.0 mph /  22.5 km/h 90 % 0.00 in /  0 mm 0 W/m2
23:40 38.7 °F /  3.7 °C 36.0 °F /  2.2 °C 29.69 in /  1005.3 hPa SSE 7.0 mph /  11.3 km/h 11.0 mph /  17.7 km/h 91 % 0.01 in /  0.25 mm 0 W/m2
23:51 38.7 °F /  3.7 °C 36.3 °F /  2.4 °C 29.68 in /  1005 hPa SSE 8.0 mph /  12.9 km/h 11.0 mph /  17.7 km/h 91 % 0.01 in /  0.25 mm 0 W/m2
Delerius-Weather
Compliments of Weather Underground - 1.5 mb

Data updates at regular intervals.